SBAT

Alta Floresta Airport

Alta Floresta, Brazil
TAF SBAT 171000Z 1712/1724 36002KT 9999 SCT010 TN26/1712Z TX32/1718Z BECMG 1713/1715 30008KT SCT015 BECMG 1721/1723 00000KT CAVOK RMK PCQ
Issued Valid From Valid To
Aug-17 @ 10:00 UTC
(5 hours ago)
Aug-17 @ 12:00 UTC
(3 hours ago)
Aug-18 @ 00:00 UTC
(in 9 hours)
Expired Click to View Aug-17 @ 12:00 to Aug-17 @ 13:00
TAF SBAT 171000Z 1712/1724 36002KT 9999 SCT010 TN26/1712Z TX32/1718Z
Wind Visibility Clouds
360° at 2 knots 10,000+ meters
  • Scattered at 1,000' AGL
Becoming Aug-17 @ 13:00 to Aug-17 @ 21:00
BECMG 1713/1715 30008KT SCT015
Wind Visibility Clouds
300° at 8 knots 10,000+ meters
  • Scattered at 1,500' AGL
Becoming Aug-17 @ 21:00 to Aug-18 @ 00:00
BECMG 1721/1723 00000KT CAVOK RMK PCQ
Visibility Clouds Conditions
10,000+ meters
  • No significant clouds
TAF SBAT 171000Z 1712/1724 36002KT 9999 SCT010 TN26/1712Z TX32/1718Z BECMG 1713/1715 30008KT SCT015 BECMG 1721/1723 00000KT CAVOK RMK PCQ
Issued Aug-17 @ 10:00 UTC
(5 hours ago)
Valid From Aug-17 @ 12:00 UTC
(3 hours ago)
Valid To Aug-18 @ 00:00 UTC
(in 9 hours)
Aug-17 @ 12:00 - Aug-17 @ 13:00
Wind Visibility
360° at 2 knots 10,000+ meters
Clouds
  • Scattered at 1,000' AGL
Becoming Aug-17 @ 13:00 - Aug-17 @ 21:00
Wind Visibility
300° at 8 knots 10,000+ meters
Clouds
  • Scattered at 1,500' AGL
Becoming Aug-17 @ 21:00 - Aug-18 @ 00:00
Clouds
  • No significant clouds
Conditions